Time;durP1;ratioP1;P1;durP2;ratioP2;P2;SDS_P1;SDS_P2;PMS_P1;PMS_P2;Temp;Humidity;BMP_temperature;BMP_pressure;BME280_temperature;BME280_humidity;BME280_pressure;Samples;Min_cycle;Max_cycle;Signal;HPM_P1;HPM_P2
2021/08/08 00:00:05;;;;;;;4.20;2.50;;;;;;;;;;5078612;28;20552;-71
2021/08/08 00:02:37;;;;;;;2.97;2.30;;;;;;;;;;5079136;28;20453;-69
2021/08/08 00:05:07;;;;;;;7.77;2.50;;;;;;;;;;5078892;28;20482;-71
2021/08/08 00:07:34;;;;;;;3.87;3.27;;;;;;;;;;5077283;28;20540;-71
2021/08/08 00:10:04;;;;;;;2.50;1.70;;;;;;;;;;5078752;28;20448;-71
2021/08/08 00:12:34;;;;;;;3.67;2.17;;;;;;;;;;5077807;28;20941;-71
2021/08/08 00:15:02;;;;;;;3.10;2.10;;;;;;;;;;5077720;28;20550;-71
2021/08/08 00:17:30;;;;;;;3.13;2.30;;;;;;;;;;5077679;28;20460;-71
2021/08/08 00:19:58;;;;;;;4.77;2.23;;;;;;;;;;5078657;28;20444;-70
2021/08/08 00:22:26;;;;;;;6.47;2.53;;;;;;;;;;5076718;28;20456;-71
2021/08/08 00:24:54;;;;;;;3.57;2.90;;;;;;;;;;5077594;28;20449;-70
2021/08/08 00:27:24;;;;;;;3.93;3.30;;;;;;;;;;5077153;28;20452;-70
2021/08/08 00:29:52;;;;;;;3.20;2.00;;;;;;;;;;5077520;28;20459;-70
2021/08/08 00:32:19;;;;;;;3.50;2.13;;;;;;;;;;5077641;28;20527;-70
2021/08/08 00:34:47;;;;;;;9.43;2.40;;;;;;;;;;5078092;28;20633;-70
2021/08/08 00:37:15;;;;;;;5.37;2.20;;;;;;;;;;5078184;28;20480;-70
2021/08/08 00:39:42;;;;;;;3.30;2.07;;;;;;;;;;5076885;28;20452;-70
2021/08/08 00:42:10;;;;;;;6.80;2.17;;;;;;;;;;5078251;28;20463;-70
2021/08/08 00:44:39;;;;;;;3.33;2.80;;;;;;;;;;5078343;28;20445;-70
2021/08/08 00:47:07;;;;;;;3.17;2.43;;;;;;;;;;5077575;28;20456;-70
2021/08/08 00:49:35;;;;;;;4.23;2.30;;;;;;;;;;5077636;28;20489;-70
2021/08/08 00:52:03;;;;;;;2.50;2.00;;;;;;;;;;5077269;28;20460;-70
2021/08/08 00:54:31;;;;;;;3.10;2.40;;;;;;;;;;5077296;28;20449;-70
2021/08/08 00:56:59;;;;;;;3.40;2.60;;;;;;;;;;5077875;28;20889;-70
2021/08/08 00:59:26;;;;;;;4.00;2.40;;;;;;;;;;5077069;28;20449;-71
2021/08/08 01:01:56;;;;;;;3.83;2.10;;;;;;;;;;5077372;28;21080;-70
2021/08/08 01:04:28;;;;;;;5.10;2.47;;;;;;;;;;5077428;28;20882;-70
2021/08/08 01:07:00;;;;;;;3.60;2.60;;;;;;;;;;5076725;28;20510;-70
2021/08/08 01:09:29;;;;;;;3.27;2.37;;;;;;;;;;5077773;28;20555;-70
2021/08/08 01:11:59;;;;;;;3.50;2.00;;;;;;;;;;5076793;28;20460;-71
2021/08/08 01:14:30;;;;;;;3.80;2.30;;;;;;;;;;5076765;28;20719;-71
2021/08/08 01:17:04;;;;;;;7.90;2.70;;;;;;;;;;5078087;28;20775;-70
2021/08/08 01:19:33;;;;;;;3.23;2.53;;;;;;;;;;5077183;28;20489;-70
2021/08/08 01:22:03;;;;;;;4.10;2.67;;;;;;;;;;5075530;28;20538;-70
2021/08/08 01:24:33;;;;;;;6.40;2.37;;;;;;;;;;5077877;28;20464;-70
2021/08/08 01:27:02;;;;;;;3.10;2.40;;;;;;;;;;5076499;28;20845;-71
2021/08/08 01:29:31;;;;;;;6.10;2.60;;;;;;;;;;5078558;28;20457;-70
2021/08/08 01:31:59;;;;;;;3.27;2.40;;;;;;;;;;5077395;28;20457;-70
2021/08/08 01:34:27;;;;;;;10.30;2.07;;;;;;;;;;5075677;28;20468;-70
2021/08/08 01:36:55;;;;;;;5.67;2.50;;;;;;;;;;5077610;28;20452;-70
2021/08/08 01:39:23;;;;;;;4.73;2.43;;;;;;;;;;5078077;28;20449;-70
2021/08/08 01:41:53;;;;;;;2.77;1.97;;;;;;;;;;5076240;28;20814;-70
2021/08/08 01:44:22;;;;;;;3.60;1.97;;;;;;;;;;5064780;28;20473;-70
2021/08/08 01:46:52;;;;;;;6.33;2.07;;;;;;;;;;5056214;28;20476;-70
2021/08/08 01:49:21;;;;;;;6.90;2.43;;;;;;;;;;5056665;28;20469;-70
2021/08/08 01:51:49;;;;;;;4.33;2.50;;;;;;;;;;5056316;28;20903;-69
2021/08/08 01:54:18;;;;;;;3.77;2.77;;;;;;;;;;5070477;28;20499;-70
2021/08/08 01:56:46;;;;;;;6.13;2.23;;;;;;;;;;5076414;28;20777;-70
2021/08/08 01:59:16;;;;;;;3.27;2.40;;;;;;;;;;5076950;28;20482;-70
2021/08/08 02:01:47;;;;;;;7.90;2.30;;;;;;;;;;5075929;28;20872;-70
2021/08/08 02:04:18;;;;;;;3.13;1.80;;;;;;;;;;5076514;28;20453;-70
2021/08/08 02:06:46;;;;;;;4.47;2.40;;;;;;;;;;5076331;28;20456;-70
2021/08/08 02:09:14;;;;;;;3.70;2.10;;;;;;;;;;5076347;28;20496;-70
2021/08/08 02:11:42;;;;;;;3.77;2.00;;;;;;;;;;5075380;28;20460;-69
2021/08/08 02:14:11;;;;;;;7.03;2.33;;;;;;;;;;5075988;28;20465;-70
2021/08/08 02:16:40;;;;;;;5.30;2.80;;;;;;;;;;5076668;28;20573;-70
2021/08/08 02:19:08;;;;;;;4.20;2.10;;;;;;;;;;5076057;28;20461;-70
2021/08/08 02:21:39;;;;;;;3.30;2.37;;;;;;;;;;5075003;28;20460;-70
2021/08/08 02:24:07;;;;;;;3.47;2.30;;;;;;;;;;5074391;28;20862;-70
2021/08/08 02:26:35;;;;;;;6.60;2.47;;;;;;;;;;5076257;28;20448;-70
2021/08/08 02:29:02;;;;;;;3.93;2.73;;;;;;;;;;5077396;28;20460;-69
2021/08/08 02:31:36;;;;;;;5.77;2.70;;;;;;;;;;5065808;28;20481;-69
2021/08/08 02:34:09;;;;;;;5.43;2.30;;;;;;;;;;5056203;28;20548;-69
2021/08/08 02:36:38;;;;;;;3.33;2.27;;;;;;;;;;5056913;28;20492;-69
2021/08/08 02:39:07;;;;;;;2.97;2.23;;;;;;;;;;5056078;28;20821;-69
2021/08/08 02:41:36;;;;;;;6.43;2.00;;;;;;;;;;5056568;28;20445;-68
2021/08/08 02:44:05;;;;;;;7.60;2.87;;;;;;;;;;5057112;28;20521;-70
2021/08/08 02:46:33;;;;;;;4.23;1.80;;;;;;;;;;5056039;28;20532;-69
2021/08/08 02:49:01;;;;;;;4.47;2.33;;;;;;;;;;5056718;28;20464;-70
2021/08/08 02:51:30;;;;;;;5.30;2.43;;;;;;;;;;5055813;28;20445;-69
2021/08/08 02:53:58;;;;;;;3.50;1.83;;;;;;;;;;5057135;28;20869;-69
2021/08/08 02:56:26;;;;;;;3.40;2.70;;;;;;;;;;5057503;28;20531;-70
2021/08/08 02:58:54;;;;;;;4.33;2.80;;;;;;;;;;5076278;28;20464;-69
2021/08/08 03:01:21;;;;;;;3.27;1.93;;;;;;;;;;5076680;28;20777;-71
2021/08/08 03:03:52;;;;;;;6.57;2.60;;;;;;;;;;5076234;28;20457;-70
2021/08/08 03:06:20;;;;;;;3.83;2.93;;;;;;;;;;5060850;28;20493;-71
2021/08/08 03:08:49;;;;;;;6.43;2.33;;;;;;;;;;5074018;28;20464;-69
2021/08/08 03:11:17;;;;;;;3.03;2.30;;;;;;;;;;5079721;28;20459;-71
2021/08/08 03:13:44;;;;;;;3.17;2.30;;;;;;;;;;5078338;28;20449;-70
2021/08/08 03:16:15;;;;;;;4.07;2.20;;;;;;;;;;5058999;28;20609;-71
2021/08/08 03:18:43;;;;;;;3.57;2.47;;;;;;;;;;5059115;28;20784;-71
2021/08/08 03:21:18;;;;;;;2.50;1.80;;;;;;;;;;5059678;28;20449;-71
2021/08/08 03:23:49;;;;;;;4.00;2.37;;;;;;;;;;5059415;28;20460;-71
2021/08/08 03:26:19;;;;;;;3.53;2.20;;;;;;;;;;5059283;28;20915;-71
2021/08/08 03:28:49;;;;;;;3.43;2.20;;;;;;;;;;5059288;28;20465;-70
2021/08/08 03:31:19;;;;;;;6.37;2.70;;;;;;;;;;5074021;28;20457;-69
2021/08/08 03:33:47;;;;;;;3.33;2.20;;;;;;;;;;5079360;28;20457;-71
2021/08/08 03:36:15;;;;;;;8.47;2.50;;;;;;;;;;5079069;28;20506;-71
2021/08/08 03:38:43;;;;;;;3.43;2.07;;;;;;;;;;5078854;28;20470;-69
2021/08/08 03:41:11;;;;;;;3.63;2.20;;;;;;;;;;5079103;28;20464;-69
2021/08/08 03:43:40;;;;;;;3.30;1.70;;;;;;;;;;5078804;28;20460;-69
2021/08/08 03:46:08;;;;;;;3.30;2.00;;;;;;;;;;5079210;28;20456;-70
2021/08/08 03:48:36;;;;;;;2.87;1.47;;;;;;;;;;5079014;28;20467;-70
2021/08/08 03:51:04;;;;;;;4.00;2.00;;;;;;;;;;5078865;28;20456;-69
2021/08/08 03:53:31;;;;;;;2.87;1.93;;;;;;;;;;5078974;28;20549;-71
2021/08/08 03:55:59;;;;;;;2.57;1.83;;;;;;;;;;5078535;28;20480;-71
2021/08/08 03:58:30;;;;;;;4.50;1.40;;;;;;;;;;5079086;28;21111;-71
2021/08/08 04:01:01;;;;;;;4.83;2.13;;;;;;;;;;5079169;28;20915;-70
2021/08/08 04:03:28;;;;;;;2.97;1.60;;;;;;;;;;5079186;28;20878;-70
2021/08/08 04:05:56;;;;;;;4.20;2.30;;;;;;;;;;5078704;28;20492;-70
2021/08/08 04:08:24;;;;;;;3.03;1.60;;;;;;;;;;5078652;28;20832;-70
2021/08/08 04:10:52;;;;;;;2.40;1.30;;;;;;;;;;5077183;28;20449;-70
2021/08/08 04:13:20;;;;;;;4.23;1.30;;;;;;;;;;5078181;28;20707;-70
2021/08/08 04:15:48;;;;;;;4.63;1.60;;;;;;;;;;5078116;28;20495;-70
2021/08/08 04:18:17;;;;;;;1.90;1.33;;;;;;;;;;5078394;28;20513;-69
2021/08/08 04:20:44;;;;;;;2.33;1.30;;;;;;;;;;5078004;28;20538;-70
2021/08/08 04:23:12;;;;;;;2.40;1.70;;;;;;;;;;5078872;28;20471;-70
2021/08/08 04:25:41;;;;;;;4.40;1.40;;;;;;;;;;5078425;28;20449;-70
2021/08/08 04:28:10;;;;;;;2.43;1.30;;;;;;;;;;5078731;28;20522;-70
2021/08/08 04:30:38;;;;;;;2.70;1.30;;;;;;;;;;5078313;28;20478;-71
2021/08/08 04:33:06;;;;;;;3.47;1.30;;;;;;;;;;5078204;28;20728;-70
2021/08/08 04:35:37;;;;;;;4.03;1.33;;;;;;;;;;5077843;28;20456;-70
2021/08/08 04:38:05;;;;;;;2.33;1.00;;;;;;;;;;5075313;28;20495;-70
2021/08/08 04:40:32;;;;;;;2.27;1.50;;;;;;;;;;5077635;28;20482;-70
2021/08/08 04:43:00;;;;;;;5.60;1.70;;;;;;;;;;5078235;28;20460;-70
2021/08/08 04:45:28;;;;;;;2.50;1.10;;;;;;;;;;5077899;28;20461;-70
2021/08/08 04:47:56;;;;;;;3.00;1.27;;;;;;;;;;5076705;28;20468;-70
2021/08/08 04:50:24;;;;;;;2.73;1.20;;;;;;;;;;5072170;28;20467;-70
2021/08/08 04:52:53;;;;;;;2.50;1.50;;;;;;;;;;5077723;28;20486;-70
2021/08/08 04:55:22;;;;;;;2.80;1.10;;;;;;;;;;5077460;28;20444;-71
2021/08/08 04:57:49;;;;;;;3.90;1.17;;;;;;;;;;5077320;28;20480;-70
2021/08/08 05:00:18;;;;;;;2.40;1.13;;;;;;;;;;5077490;28;20852;-70
2021/08/08 05:02:46;;;;;;;2.57;1.40;;;;;;;;;;5077452;28;20531;-70
2021/08/08 05:05:14;;;;;;;2.37;1.40;;;;;;;;;;5077389;28;20713;-70
2021/08/08 05:07:44;;;;;;;2.60;1.17;;;;;;;;;;5077644;28;20464;-70
2021/08/08 05:10:16;;;;;;;6.10;1.93;;;;;;;;;;5077983;28;20459;-72
2021/08/08 05:12:46;;;;;;;2.43;1.40;;;;;;;;;;5077260;28;20464;-70
2021/08/08 05:15:15;;;;;;;2.27;1.30;;;;;;;;;;5076605;28;20464;-71
2021/08/08 05:17:43;;;;;;;1.87;1.10;;;;;;;;;;5077272;28;20484;-70
2021/08/08 05:20:12;;;;;;;2.27;1.00;;;;;;;;;;5078132;28;20732;-70
2021/08/08 05:22:39;;;;;;;1.80;1.17;;;;;;;;;;5077955;28;20445;-70
2021/08/08 05:25:11;;;;;;;2.80;1.50;;;;;;;;;;5077294;28;20463;-69
2021/08/08 05:27:40;;;;;;;5.20;1.30;;;;;;;;;;5076825;28;20452;-70
2021/08/08 05:30:09;;;;;;;2.27;1.20;;;;;;;;;;5078098;28;20530;-70
2021/08/08 05:32:37;;;;;;;3.50;1.40;;;;;;;;;;5076776;28;20765;-70
2021/08/08 05:35:06;;;;;;;3.30;1.13;;;;;;;;;;5076861;28;20513;-70
2021/08/08 05:37:34;;;;;;;3.20;1.53;;;;;;;;;;5076873;28;20480;-71
2021/08/08 05:40:06;;;;;;;2.77;1.77;;;;;;;;;;5077173;28;20448;-71
2021/08/08 05:42:34;;;;;;;4.90;2.00;;;;;;;;;;5076723;28;20449;-71
2021/08/08 05:45:03;;;;;;;2.77;1.70;;;;;;;;;;5076918;28;20532;-71
2021/08/08 05:47:34;;;;;;;2.47;1.73;;;;;;;;;;5076897;28;20888;-70
2021/08/08 05:50:02;;;;;;;3.30;2.07;;;;;;;;;;5078062;28;20718;-71
2021/08/08 05:52:33;;;;;;;2.80;1.77;;;;;;;;;;5076949;28;20459;-71
2021/08/08 05:55:01;;;;;;;2.30;1.53;;;;;;;;;;5078105;28;20488;-71
2021/08/08 05:57:29;;;;;;;4.07;1.90;;;;;;;;;;5076911;28;20896;-71
2021/08/08 05:59:57;;;;;;;2.30;1.83;;;;;;;;;;5076862;28;20471;-70
2021/08/08 06:02:37;;;;;;;1.70;1.33;;;;;;;;;;5077418;28;20452;-71
2021/08/08 06:05:05;;;;;;;1.90;1.40;;;;;;;;;;5076724;28;20752;-70
2021/08/08 06:07:36;;;;;;;3.23;1.43;;;;;;;;;;5075922;28;20452;-71
2021/08/08 06:10:04;;;;;;;2.30;1.67;;;;;;;;;;5061666;28;20958;-70
2021/08/08 06:12:32;;;;;;;3.00;1.63;;;;;;;;;;5076233;28;20457;-71
2021/08/08 06:15:00;;;;;;;3.93;1.60;;;;;;;;;;5064532;28;20464;-71
2021/08/08 06:17:31;;;;;;;2.50;1.70;;;;;;;;;;5056778;28;20536;-70
2021/08/08 06:19:59;;;;;;;2.40;1.50;;;;;;;;;;5056776;28;20453;-71
2021/08/08 06:22:27;;;;;;;2.23;1.97;;;;;;;;;;5056291;28;20450;-70
2021/08/08 06:24:55;;;;;;;4.37;1.90;;;;;;;;;;5057389;28;20457;-70
2021/08/08 06:27:22;;;;;;;3.33;1.03;;;;;;;;;;5056751;28;20449;-71
2021/08/08 06:29:50;;;;;;;1.80;1.37;;;;;;;;;;5055811;28;20815;-71
2021/08/08 06:32:18;;;;;;;1.97;1.60;;;;;;;;;;5057126;28;20450;-71
2021/08/08 06:34:47;;;;;;;3.80;1.70;;;;;;;;;;5057082;28;20488;-70
2021/08/08 06:37:16;;;;;;;3.30;1.43;;;;;;;;;;5056264;28;20485;-71
2021/08/08 06:39:44;;;;;;;2.23;1.80;;;;;;;;;;5067308;28;20465;-70
2021/08/08 06:42:11;;;;;;;3.57;1.60;;;;;;;;;;5067036;28;20471;-71
2021/08/08 06:44:39;;;;;;;2.00;1.50;;;;;;;;;;5081007;28;20485;-70
2021/08/08 06:47:07;;;;;;;4.87;1.63;;;;;;;;;;5083036;28;20517;-71
2021/08/08 06:49:36;;;;;;;2.27;1.57;;;;;;;;;;5080279;28;20459;-72
2021/08/08 06:52:06;;;;;;;4.03;2.30;;;;;;;;;;5080421;28;20724;-70
2021/08/08 06:54:34;;;;;;;3.83;2.10;;;;;;;;;;5080418;28;20464;-70
2021/08/08 06:57:02;;;;;;;3.67;1.93;;;;;;;;;;5079607;28;20480;-70
2021/08/08 06:59:31;;;;;;;3.30;1.83;;;;;;;;;;5079479;28;20475;-70
2021/08/08 07:01:58;;;;;;;2.33;1.90;;;;;;;;;;5079695;28;20452;-70
2021/08/08 07:04:26;;;;;;;2.27;1.57;;;;;;;;;;5078860;28;20808;-70
2021/08/08 07:06:54;;;;;;;4.40;2.13;;;;;;;;;;5080299;28;20524;-70
2021/08/08 07:09:24;;;;;;;4.30;1.47;;;;;;;;;;5081293;28;20590;-70
2021/08/08 07:11:51;;;;;;;2.30;1.87;;;;;;;;;;5079685;28;20468;-71
2021/08/08 07:14:19;;;;;;;2.43;1.70;;;;;;;;;;5080752;28;20456;-71
2021/08/08 07:16:47;;;;;;;4.53;2.20;;;;;;;;;;5079576;28;20999;-71
2021/08/08 07:19:15;;;;;;;5.80;1.83;;;;;;;;;;5080607;28;20460;-71
2021/08/08 07:21:43;;;;;;;2.60;2.13;;;;;;;;;;5078398;28;20456;-70
2021/08/08 07:24:11;;;;;;;2.73;2.50;;;;;;;;;;5079526;28;20802;-71
2021/08/08 07:26:40;;;;;;;4.23;2.70;;;;;;;;;;5078841;28;20536;-70
2021/08/08 07:29:08;;;;;;;5.47;2.83;;;;;;;;;;5078636;28;20503;-71
2021/08/08 07:31:36;;;;;;;5.30;3.20;;;;;;;;;;5078890;28;20682;-71
2021/08/08 07:34:04;;;;;;;3.70;2.57;;;;;;;;;;5078899;28;20468;-71
2021/08/08 07:36:32;;;;;;;4.23;3.00;;;;;;;;;;5080151;28;20448;-71
2021/08/08 07:38:59;;;;;;;3.20;2.90;;;;;;;;;;5078970;28;20460;-71
2021/08/08 07:41:27;;;;;;;8.80;3.30;;;;;;;;;;5080273;28;20478;-71
2021/08/08 07:43:56;;;;;;;5.23;3.63;;;;;;;;;;5079859;28;20456;-71
2021/08/08 07:46:24;;;;;;;3.83;2.43;;;;;;;;;;5077386;28;20513;-71
2021/08/08 07:48:52;;;;;;;7.23;3.33;;;;;;;;;;5065583;28;20773;-70
2021/08/08 07:51:20;;;;;;;4.43;2.90;;;;;;;;;;5069353;28;20448;-70
2021/08/08 07:53:48;;;;;;;8.93;2.77;;;;;;;;;;5058294;28;20454;-70
2021/08/08 07:56:16;;;;;;;4.20;2.97;;;;;;;;;;5058727;28;20492;-71
2021/08/08 07:58:44;;;;;;;3.40;3.10;;;;;;;;;;5057742;28;21007;-70
2021/08/08 08:01:13;;;;;;;5.47;4.13;;;;;;;;;;5058818;28;20856;-70
2021/08/08 08:03:42;;;;;;;4.47;2.50;;;;;;;;;;5061054;28;20732;-72
2021/08/08 08:06:11;;;;;;;4.53;3.23;;;;;;;;;;5076991;28;20448;-71
2021/08/08 08:08:40;;;;;;;4.03;2.90;;;;;;;;;;5078161;28;20543;-70
2021/08/08 08:11:08;;;;;;;4.93;3.20;;;;;;;;;;5078169;28;20459;-71
2021/08/08 08:13:36;;;;;;;5.10;3.47;;;;;;;;;;5078020;28;21084;-70
2021/08/08 08:16:04;;;;;;;5.50;3.40;;;;;;;;;;5079181;28;20453;-71
2021/08/08 08:18:33;;;;;;;6.23;3.27;;;;;;;;;;5079498;28;20488;-71
2021/08/08 08:21:02;;;;;;;4.87;2.93;;;;;;;;;;5078124;28;20771;-71
2021/08/08 08:23:30;;;;;;;4.90;4.37;;;;;;;;;;5078525;28;20879;-71
2021/08/08 08:26:01;;;;;;;5.70;3.60;;;;;;;;;;5078579;28;20452;-70
2021/08/08 08:28:30;;;;;;;6.00;3.30;;;;;;;;;;5077959;28;20453;-71
2021/08/08 08:30:58;;;;;;;4.67;3.47;;;;;;;;;;5079054;28;20883;-69
2021/08/08 08:33:26;;;;;;;7.20;3.80;;;;;;;;;;5079127;28;20467;-69
2021/08/08 08:35:56;;;;;;;6.20;3.53;;;;;;;;;;5078392;28;20452;-69
2021/08/08 08:38:25;;;;;;;3.87;3.47;;;;;;;;;;5078418;28;20488;-70
2021/08/08 08:40:54;;;;;;;5.23;3.27;;;;;;;;;;5077989;28;20548;-71
2021/08/08 08:43:24;;;;;;;16.03;4.23;;;;;;;;;;5078996;28;20798;-71
2021/08/08 08:45:52;;;;;;;6.87;3.50;;;;;;;;;;5062311;28;20457;-71
2021/08/08 08:48:22;;;;;;;5.77;3.90;;;;;;;;;;5058062;28;20461;-71
2021/08/08 08:50:52;;;;;;;3.70;2.50;;;;;;;;;;5058253;28;20453;-71
2021/08/08 08:53:22;;;;;;;6.97;4.33;;;;;;;;;;5076336;28;20456;-70
2021/08/08 08:55:50;;;;;;;5.27;3.90;;;;;;;;;;5076183;28;20449;-70
2021/08/08 08:58:19;;;;;;;4.03;3.20;;;;;;;;;;5077405;28;20500;-70
2021/08/08 09:00:47;;;;;;;7.17;4.20;;;;;;;;;;5075842;28;20748;-70
2021/08/08 09:03:14;;;;;;;6.73;3.87;;;;;;;;;;5074933;28;20833;-70
2021/08/08 09:05:42;;;;;;;7.17;4.23;;;;;;;;;;5075937;28;20939;-70
2021/08/08 09:08:10;;;;;;;5.40;3.87;;;;;;;;;;5076681;28;20487;-69
2021/08/08 09:10:40;;;;;;;8.57;4.53;;;;;;;;;;5077653;28;20561;-69
2021/08/08 09:13:10;;;;;;;9.73;4.50;;;;;;;;;;5061366;28;20466;-71
2021/08/08 09:15:41;;;;;;;11.23;4.20;;;;;;;;;;5074182;28;20463;-71
2021/08/08 09:18:13;;;;;;;5.93;4.17;;;;;;;;;;5074679;28;20876;-69
2021/08/08 09:20:41;;;;;;;8.13;4.37;;;;;;;;;;5076810;28;20448;-69
2021/08/08 09:23:09;;;;;;;6.73;3.90;;;;;;;;;;5076205;28;20875;-69
2021/08/08 09:25:37;;;;;;;5.50;3.50;;;;;;;;;;5073805;28;20709;-70
2021/08/08 09:28:11;;;;;;;4.30;3.90;;;;;;;;;;5092068;28;20524;-70
2021/08/08 09:30:40;;;;;;;5.20;3.53;;;;;;;;;;5088653;28;20518;-70
2021/08/08 09:33:08;;;;;;;8.40;3.63;;;;;;;;;;5077125;28;20499;-69
2021/08/08 09:35:40;;;;;;;7.83;3.70;;;;;;;;;;5075743;28;20486;-71
2021/08/08 09:38:08;;;;;;;6.07;3.57;;;;;;;;;;5075070;28;20496;-71
2021/08/08 09:40:38;;;;;;;15.90;3.70;;;;;;;;;;5075250;28;20448;-71
2021/08/08 09:43:07;;;;;;;5.43;3.00;;;;;;;;;;5076877;28;20898;-70
2021/08/08 09:45:40;;;;;;;5.90;3.67;;;;;;;;;;5076167;28;20456;-70
2021/08/08 09:48:11;;;;;;;10.03;3.60;;;;;;;;;;5075869;28;20464;-70
2021/08/08 09:50:39;;;;;;;4.90;3.50;;;;;;;;;;5074851;28;20460;-70
2021/08/08 09:53:08;;;;;;;5.80;3.57;;;;;;;;;;5060028;28;20728;-70
2021/08/08 09:55:37;;;;;;;7.70;3.97;;;;;;;;;;5055388;28;20454;-71
2021/08/08 09:58:07;;;;;;;3.23;2.47;;;;;;;;;;5072630;28;20579;-70
2021/08/08 10:00:36;;;;;;;5.77;3.50;;;;;;;;;;5076021;28;20488;-70
2021/08/08 10:03:06;;;;;;;4.20;3.57;;;;;;;;;;5081244;28;20463;-70
2021/08/08 10:05:36;;;;;;;4.00;3.40;;;;;;;;;;5068909;28;20472;-70
2021/08/08 10:08:10;;;;;;;5.23;3.60;;;;;;;;;;5055943;28;20468;-70
2021/08/08 10:10:39;;;;;;;4.13;2.50;;;;;;;;;;5057091;28;20449;-70
2021/08/08 10:13:19;;;;;;;5.30;2.87;;;;;;;;;;5056894;28;20457;-71
2021/08/08 10:15:48;;;;;;;3.33;2.80;;;;;;;;;;5069979;28;20472;-71
2021/08/08 10:18:17;;;;;;;6.93;3.47;;;;;;;;;;5076637;28;20557;-71
2021/08/08 10:20:45;;;;;;;7.57;3.33;;;;;;;;;;5075444;28;20840;-71
2021/08/08 10:23:15;;;;;;;10.13;3.07;;;;;;;;;;5069082;28;21013;-70
2021/08/08 10:25:45;;;;;;;5.27;3.17;;;;;;;;;;5056277;28;20507;-70
2021/08/08 10:28:13;;;;;;;9.30;6.00;;;;;;;;;;5056003;28;20491;-70
2021/08/08 10:30:42;;;;;;;10.10;5.07;;;;;;;;;;5075617;28;20448;-71
2021/08/08 10:33:10;;;;;;;8.13;4.10;;;;;;;;;;5074053;28;20452;-70
2021/08/08 10:35:41;;;;;;;4.23;2.77;;;;;;;;;;5077964;28;20845;-70
2021/08/08 10:38:09;;;;;;;8.07;3.60;;;;;;;;;;5074851;28;20486;-69
2021/08/08 10:40:41;;;;;;;3.70;3.03;;;;;;;;;;5074657;28;20449;-71
2021/08/08 10:43:10;;;;;;;6.97;2.77;;;;;;;;;;5074958;28;20531;-70
2021/08/08 10:45:39;;;;;;;6.53;3.07;;;;;;;;;;5075892;28;20922;-70
2021/08/08 10:48:08;;;;;;;5.00;2.53;;;;;;;;;;5075047;28;20825;-70
2021/08/08 10:50:37;;;;;;;6.40;2.63;;;;;;;;;;5074943;28;20459;-70
2021/08/08 10:53:06;;;;;;;11.23;4.20;;;;;;;;;;5075277;28;20465;-70
2021/08/08 10:55:37;;;;;;;11.30;4.60;;;;;;;;;;5074945;28;20488;-70
2021/08/08 10:58:15;;;;;;;9.80;5.20;;;;;;;;;;5074969;28;20985;-71
2021/08/08 11:00:44;;;;;;;5.20;3.20;;;;;;;;;;5074467;28;20449;-69
2021/08/08 11:03:19;;;;;;;5.47;3.20;;;;;;;;;;5074575;28;20563;-70
2021/08/08 11:05:48;;;;;;;5.90;2.93;;;;;;;;;;5074531;28;20849;-71
2021/08/08 11:08:20;;;;;;;4.80;3.00;;;;;;;;;;5071269;28;20461;-70
2021/08/08 11:10:48;;;;;;;4.10;2.50;;;;;;;;;;5055083;28;20532;-70
2021/08/08 11:13:20;;;;;;;7.67;3.57;;;;;;;;;;5055310;28;20802;-70
2021/08/08 11:15:48;;;;;;;5.37;2.50;;;;;;;;;;5066394;28;20513;-71
2021/08/08 11:18:16;;;;;;;6.80;3.30;;;;;;;;;;5075075;28;20496;-71
2021/08/08 11:20:44;;;;;;;3.80;3.10;;;;;;;;;;5075030;28;20494;-72
2021/08/08 11:23:12;;;;;;;5.10;3.33;;;;;;;;;;5075584;28;20475;-71
2021/08/08 11:25:45;;;;;;;5.13;4.30;;;;;;;;;;5077576;28;20460;-70
2021/08/08 11:28:13;;;;;;;11.80;3.73;;;;;;;;;;5077919;28;20521;-70
2021/08/08 11:30:42;;;;;;;5.70;3.40;;;;;;;;;;5079359;28;20839;-70
2021/08/08 11:33:10;;;;;;;5.70;2.40;;;;;;;;;;5079058;28;20452;-70
2021/08/08 11:35:38;;;;;;;7.60;3.53;;;;;;;;;;5079041;28;20448;-69
2021/08/08 11:38:14;;;;;;;7.13;2.90;;;;;;;;;;5077446;28;20477;-70
2021/08/08 11:40:45;;;;;;;11.83;4.33;;;;;;;;;;5078486;28;20456;-70
2021/08/08 11:43:14;;;;;;;7.80;4.23;;;;;;;;;;5077353;28;20476;-70
2021/08/08 11:45:46;;;;;;;9.90;4.63;;;;;;;;;;5078988;28;20490;-70
2021/08/08 11:48:14;;;;;;;8.37;3.90;;;;;;;;;;5092442;28;20452;-70
2021/08/08 11:50:43;;;;;;;12.90;4.37;;;;;;;;;;5078278;28;20731;-70
2021/08/08 11:53:12;;;;;;;4.90;4.40;;;;;;;;;;5082027;28;20529;-70
2021/08/08 11:55:40;;;;;;;4.60;4.07;;;;;;;;;;5090936;28;20508;-70
2021/08/08 11:58:10;;;;;;;4.97;3.20;;;;;;;;;;5098873;28;20548;-70
2021/08/08 12:00:40;;;;;;;7.00;4.83;;;;;;;;;;5092182;28;20456;-69
2021/08/08 12:03:08;;;;;;;8.30;3.43;;;;;;;;;;5078096;28;20460;-70
2021/08/08 12:05:36;;;;;;;4.73;3.60;;;;;;;;;;5078013;28;20463;-70
2021/08/08 12:08:05;;;;;;;6.87;5.03;;;;;;;;;;5077198;28;20444;-70
2021/08/08 12:10:34;;;;;;;4.57;4.00;;;;;;;;;;5077723;28;20880;-71
2021/08/08 12:13:02;;;;;;;9.33;4.00;;;;;;;;;;5077539;28;20518;-71
2021/08/08 12:15:36;;;;;;;5.97;3.63;;;;;;;;;;5090511;28;20446;-71
2021/08/08 12:18:04;;;;;;;5.10;4.13;;;;;;;;;;5076783;28;20460;-71
2021/08/08 12:20:36;;;;;;;10.33;3.40;;;;;;;;;;5077338;28;20444;-71
2021/08/08 12:23:10;;;;;;;6.23;3.30;;;;;;;;;;5077533;28;20942;-70
2021/08/08 12:25:39;;;;;;;7.60;3.73;;;;;;;;;;5076806;28;20925;-70
2021/08/08 12:28:08;;;;;;;7.47;3.73;;;;;;;;;;5090357;28;20456;-72
2021/08/08 12:30:38;;;;;;;5.83;3.00;;;;;;;;;;5098158;28;20462;-71
2021/08/08 12:33:07;;;;;;;3.97;2.53;;;;;;;;;;5097631;28;20455;-71
2021/08/08 12:35:41;;;;;;;6.23;3.83;;;;;;;;;;5080124;28;20480;-71
2021/08/08 12:38:10;;;;;;;5.33;3.17;;;;;;;;;;5076338;28;20931;-71
2021/08/08 12:40:49;;;;;;;6.70;3.30;;;;;;;;;;5078066;28;20742;-71
2021/08/08 12:43:24;;;;;;;11.40;4.53;;;;;;;;;;5076878;28;20510;-71
2021/08/08 12:45:54;;;;;;;5.60;2.33;;;;;;;;;;5077285;28;20466;-70
2021/08/08 12:48:29;;;;;;;6.33;3.47;;;;;;;;;;5077884;28;20456;-71
2021/08/08 12:50:58;;;;;;;4.10;2.70;;;;;;;;;;5077910;28;20521;-71
2021/08/08 12:53:28;;;;;;;4.53;3.00;;;;;;;;;;5072450;28;20531;-71
2021/08/08 12:55:56;;;;;;;6.47;3.90;;;;;;;;;;5078633;28;20479;-71
2021/08/08 12:58:23;;;;;;;7.83;2.83;;;;;;;;;;5077233;28;20453;-71
2021/08/08 13:00:53;;;;;;;4.40;2.90;;;;;;;;;;5074135;28;20457;-71
2021/08/08 13:03:24;;;;;;;10.97;3.00;;;;;;;;;;5071017;28;20488;-70
2021/08/08 13:05:51;;;;;;;5.60;3.43;;;;;;;;;;5065816;28;20543;-71
2021/08/08 13:08:19;;;;;;;8.13;3.30;;;;;;;;;;5058325;28;20853;-71
2021/08/08 13:10:49;;;;;;;4.87;3.13;;;;;;;;;;5073623;28;20453;-71
2021/08/08 13:13:19;;;;;;;6.90;3.17;;;;;;;;;;5077540;28;20448;-71
2021/08/08 13:15:46;;;;;;;2.97;2.70;;;;;;;;;;5076099;28;20488;-71
2021/08/08 13:18:17;;;;;;;4.47;2.70;;;;;;;;;;5076352;28;20444;-71
2021/08/08 13:20:46;;;;;;;8.60;3.23;;;;;;;;;;5075620;28;20457;-71
2021/08/08 13:23:15;;;;;;;6.40;2.60;;;;;;;;;;5076001;28;20456;-70
2021/08/08 13:25:46;;;;;;;5.47;2.50;;;;;;;;;;5076601;28;20481;-71
2021/08/08 13:28:14;;;;;;;9.50;3.80;;;;;;;;;;5076892;28;20448;-70
2021/08/08 13:30:42;;;;;;;6.67;3.10;;;;;;;;;;5075737;28;20544;-70
2021/08/08 13:33:15;;;;;;;5.20;3.43;;;;;;;;;;5077567;28;20454;-71
2021/08/08 13:35:48;;;;;;;5.27;3.10;;;;;;;;;;5076308;28;20456;-71
2021/08/08 13:38:20;;;;;;;8.10;3.60;;;;;;;;;;5076233;28;20457;-69
2021/08/08 13:40:48;;;;;;;5.43;2.47;;;;;;;;;;5077195;28;20894;-69
2021/08/08 13:43:16;;;;;;;10.83;2.63;;;;;;;;;;5076134;28;20448;-69
2021/08/08 13:45:44;;;;;;;3.10;2.53;;;;;;;;;;5077638;28;20547;-69
2021/08/08 13:48:15;;;;;;;9.40;4.17;;;;;;;;;;5076535;28;20528;-70
2021/08/08 13:50:43;;;;;;;9.57;2.80;;;;;;;;;;5075351;28;20514;-69
2021/08/08 13:53:18;;;;;;;6.70;4.07;;;;;;;;;;5075764;28;20449;-69
2021/08/08 13:55:46;;;;;;;4.00;2.53;;;;;;;;;;5075414;28;20455;-69
2021/08/08 13:58:17;;;;;;;3.17;2.67;;;;;;;;;;5074981;28;20444;-69
2021/08/08 14:00:46;;;;;;;8.60;4.20;;;;;;;;;;5076451;28;20500;-69
2021/08/08 14:03:17;;;;;;;5.37;3.57;;;;;;;;;;5076192;28;20476;-69
2021/08/08 14:05:45;;;;;;;5.03;3.40;;;;;;;;;;5076174;28;20457;-69
2021/08/08 14:08:18;;;;;;;6.43;4.03;;;;;;;;;;5076365;28;20448;-70
2021/08/08 14:10:47;;;;;;;4.67;2.70;;;;;;;;;;5075333;28;20445;-69
2021/08/08 14:13:15;;;;;;;3.50;2.73;;;;;;;;;;5075176;28;20467;-70
2021/08/08 14:15:43;;;;;;;5.90;4.10;;;;;;;;;;5075812;28;20452;-69
2021/08/08 14:18:11;;;;;;;9.03;3.27;;;;;;;;;;5075178;28;21040;-69
2021/08/08 14:20:39;;;;;;;7.00;3.33;;;;;;;;;;5076168;28;20487;-69
2021/08/08 14:23:09;;;;;;;4.77;2.73;;;;;;;;;;5076059;28;20463;-72
2021/08/08 14:25:39;;;;;;;6.40;3.70;;;;;;;;;;5074538;28;20532;-69
2021/08/08 14:28:07;;;;;;;9.23;5.00;;;;;;;;;;5076215;28;20453;-70
2021/08/08 14:30:36;;;;;;;7.80;4.63;;;;;;;;;;5076336;28;20448;-69
2021/08/08 14:33:07;;;;;;;12.57;8.67;;;;;;;;;;5075502;28;20468;-70
2021/08/08 14:35:35;;;;;;;10.83;4.53;;;;;;;;;;5076221;28;20449;-70
2021/08/08 14:38:07;;;;;;;4.13;3.07;;;;;;;;;;5075175;28;20455;-71
2021/08/08 14:40:36;;;;;;;8.53;3.50;;;;;;;;;;5076901;28;20492;-70
2021/08/08 14:43:06;;;;;;;10.17;3.47;;;;;;;;;;5076231;28;20559;-70
2021/08/08 14:45:34;;;;;;;11.63;3.27;;;;;;;;;;5074649;28;20937;-70
2021/08/08 14:48:02;;;;;;;8.73;2.77;;;;;;;;;;5075348;28;20492;-70
2021/08/08 14:50:31;;;;;;;5.30;3.20;;;;;;;;;;5074789;28;20445;-70
2021/08/08 14:53:01;;;;;;;6.00;3.10;;;;;;;;;;5075647;28;20457;-70